Time;durP1;ratioP1;P1;durP2;ratioP2;P2;SDS_P1;SDS_P2;PMS_P1;PMS_P2;Temp;Humidity;BMP_temperature;BMP_pressure;BME280_temperature;BME280_humidity;BME280_pressure;Samples;Min_cycle;Max_cycle;Signal;HPM_P1;HPM_P2
2022/11/12 00:01:01;;;;;;;;;4.00;4.00;;;;;5.59;88.29;100002.53;4930928;28;108745;-72
2022/11/12 00:03:28;;;;;;;;;6.50;5.50;;;;;5.59;88.20;100005.19;4923286;28;102214;-72
2022/11/12 00:05:55;;;;;;;;;9.00;7.75;;;;;5.38;88.43;99978.44;4930976;28;102332;-72
2022/11/12 00:08:22;;;;;;;;;5.50;5.50;;;;;5.59;88.09;100018.63;4925886;28;102513;-72
2022/11/12 00:10:50;;;;;;;;;8.25;6.75;;;;;5.54;87.91;100013.66;4929602;28;103975;-71
2022/11/12 00:13:17;;;;;;;;;4.00;3.75;;;;;5.53;87.82;100011.13;4929729;28;102581;-71
2022/11/12 00:15:45;;;;;;;;;3.50;2.50;;;;;5.53;87.43;100011.13;4926176;28;102530;-72
2022/11/12 00:18:13;;;;;;;;;2.25;1.50;;;;;5.51;87.27;100007.72;4934624;28;102076;-72
2022/11/12 00:20:40;;;;;;;;;3.00;2.50;;;;;5.50;87.56;100003.31;4930393;28;103973;-72
2022/11/12 00:23:08;;;;;;;;;2.25;2.25;;;;;5.50;87.87;100000.66;4936897;28;102032;-72
2022/11/12 00:25:35;;;;;;;;;3.00;2.50;;;;;5.50;87.58;100000.66;4939361;28;102492;-71
2022/11/12 00:28:05;;;;;;;;;1.00;1.00;;;;;5.49;87.71;99996.28;4928462;28;102353;-71
2022/11/12 00:30:32;;;;;;;;;2.75;2.75;;;;;5.48;88.01;99999.94;4931825;28;108806;-71
2022/11/12 00:33:03;;;;;;;;;3.00;2.50;;;;;5.47;87.81;99992.88;4923521;28;101985;-71
2022/11/12 00:35:32;;;;;;;;;10.00;7.75;;;;;5.18;87.71;99953.34;4921305;28;102218;-71
2022/11/12 00:37:59;;;;;;;;;8.50;8.00;;;;;5.47;87.49;99999.09;4930107;28;102074;-70
2022/11/12 00:40:27;;;;;;;;;8.25;8.25;;;;;5.45;87.30;99989.50;4930326;28;104008;-70
2022/11/12 00:42:54;;;;;;;;;8.00;7.00;;;;;5.44;87.36;99993.16;4942631;28;102709;-71
2022/11/12 00:45:22;;;;;;;;;6.50;5.25;;;;;5.42;87.68;99990.59;4925404;28;102202;-71
2022/11/12 00:47:49;;;;;;;;;7.00;7.00;;;;;5.40;87.15;99989.91;4937081;28;102090;-70
2022/11/12 00:50:16;;;;;;;;;7.75;7.25;;;;;5.38;87.02;99981.97;4927217;28;103991;-71
2022/11/12 00:52:43;;;;;;;;;4.25;3.25;;;;;5.37;87.07;99991.00;4923882;28;102421;-71
2022/11/12 00:55:10;;;;;;;;;5.25;5.00;;;;;5.33;87.09;99991.41;4922809;28;102034;-70
2022/11/12 00:57:37;;;;;;;;;11.50;11.50;;;;;5.30;87.18;99976.44;4939409;28;102320;-70
2022/11/12 01:00:05;;;;;;;;;13.75;12.25;;;;;5.28;87.09;99985.59;4946191;28;104001;-70
2022/11/12 01:02:33;;;;;;;;;5.00;4.75;;;;;5.19;87.04;99979.19;4934691;28;102384;-70
2022/11/12 01:05:09;;;;;;;;;17.25;14.50;;;;;5.18;87.77;99992.75;4918335;28;101899;-70
2022/11/12 01:07:36;;;;;;;;;25.50;20.25;;;;;5.09;88.22;99994.38;4937696;28;109363;-70
2022/11/12 01:10:03;;;;;;;;;17.00;15.25;;;;;5.07;88.00;99993.66;4932729;28;108825;-71
2022/11/12 01:12:31;;;;;;;;;17.25;16.25;;;;;5.06;87.53;100001.84;4928673;28;102388;-70
2022/11/12 01:14:58;;;;;;;;;21.50;17.50;;;;;4.72;87.35;99939.56;4924627;28;102201;-70
2022/11/12 01:17:25;;;;;;;;;17.50;13.00;;;;;4.94;87.70;99984.97;4933077;28;102543;-71
2022/11/12 01:19:52;;;;;;;;;13.25;12.50;;;;;4.95;87.36;99987.50;4933923;28;104034;-71
2022/11/12 01:22:19;;;;;;;;;10.00;8.75;;;;;4.94;87.34;99995.72;4923600;28;102443;-71
2022/11/12 01:24:46;;;;;;;;;8.75;7.50;;;;;4.90;87.21;99996.94;4924662;28;102492;-72
2022/11/12 01:27:13;;;;;;;;;8.50;7.50;;;;;4.74;86.71;99973.28;4922836;28;102288;-71
2022/11/12 01:29:40;;;;;;;;;9.75;7.25;;;;;4.81;87.39;99995.91;4924700;28;103995;-71
2022/11/12 01:32:07;;;;;;;;;5.00;5.00;;;;;4.75;87.23;99990.22;4941671;28;102321;-71
2022/11/12 01:34:34;;;;;;;;;7.00;6.50;;;;;4.74;87.48;99993.84;4933244;28;102391;-71
2022/11/12 01:37:01;;;;;;;;;12.25;9.00;;;;;4.71;87.07;99994.97;4930410;28;102205;-71
2022/11/12 01:39:28;;;;;;;;;12.25;8.50;;;;;4.70;87.05;100000.47;4934081;28;104050;-71
2022/11/12 01:41:55;;;;;;;;;15.00;12.00;;;;;4.64;86.89;99999.13;4929702;28;102205;-71
2022/11/12 01:44:25;;;;;;;;;10.25;10.25;;;;;4.54;87.57;99992.03;4941844;28;102570;-71
2022/11/12 01:47:05;;;;;;;;;10.25;9.25;;;;;4.58;88.15;99999.69;4927267;28;102219;-71
2022/11/12 01:49:40;;;;;;;;;8.00;7.00;;;;;4.56;88.74;100006.97;4934738;28;108862;-71
2022/11/12 01:52:24;;;;;;;;;6.50;6.50;;;;;4.52;88.03;100000.19;4934207;28;102296;-71
2022/11/12 01:54:57;;;;;;;;;9.50;8.00;;;;;4.52;88.32;100004.69;4930013;28;102086;-71
2022/11/12 01:57:29;;;;;;;;;8.75;8.75;;;;;4.49;87.95;100003.97;4941393;28;102207;-70
2022/11/12 02:00:05;;;;;;;;;9.50;7.25;;;;;4.48;87.67;99999.59;4933768;28;104002;-70
2022/11/12 02:02:35;;;;;;;;;8.00;7.00;;;;;4.44;87.52;99992.81;4925230;28;102157;-72
2022/11/12 02:05:16;;;;;;;;;10.25;8.50;;;;;4.41;87.20;99995.72;4936302;28;102055;-71
2022/11/12 02:08:12;;;;;;;;;5.00;3.00;;;;;4.43;87.60;99995.59;4933549;28;102539;-70
2022/11/12 02:10:53;;;;;;;;;6.00;6.00;;;;;4.40;87.55;100007.44;4926886;28;108708;-70
2022/11/12 02:16:45;;;;;;;;;8.00;8.00;;;;;4.36;88.03;100007.81;4918256;28;106165;-71
2022/11/12 02:19:41;;;;;;;;;10.75;10.00;;;;;4.35;87.95;100003.41;4926690;28;102041;-71
2022/11/12 02:22:16;;;;;;;;;2.50;2.50;;;;;4.30;87.88;100001.13;4920976;28;108654;-71
2022/11/12 02:24:43;;;;;;;;;5.50;5.00;;;;;4.25;88.41;100011.34;4917865;28;102079;-71
2022/11/12 02:27:11;;;;;;;;;9.00;7.00;;;;;4.21;88.36;99998.34;4938103;28;102134;-71
2022/11/12 02:29:45;;;;;;;;;13.50;10.50;;;;;4.21;88.74;100004.56;4928508;28;103362;-71
2022/11/12 02:32:12;;;;;;;;;8.75;6.75;;;;;4.19;88.38;100009.19;4938381;28;103948;-71
2022/11/12 02:34:40;;;;;;;;;8.25;6.25;;;;;4.17;89.55;100000.44;4936180;28;102299;-71
2022/11/12 02:37:07;;;;;;;;;15.25;12.00;;;;;4.12;89.36;100005.31;4933797;28;102176;-71
2022/11/12 02:39:34;;;;;;;;;15.75;12.75;;;;;4.12;88.95;100008.00;4930913;28;102140;-71
2022/11/12 02:42:01;;;;;;;;;10.50;7.00;;;;;4.14;89.54;100006.06;4924156;28;103965;-71
2022/11/12 02:44:28;;;;;;;;;11.00;9.00;;;;;4.13;89.28;99998.13;4930921;28;102344;-71
2022/11/12 02:46:55;;;;;;;;;11.00;10.75;;;;;4.13;88.83;100003.50;4932537;28;102289;-71
2022/11/12 02:49:22;;;;;;;;;8.00;7.25;;;;;4.12;89.44;100002.63;4936026;28;102020;-71
2022/11/12 02:51:49;;;;;;;;;12.50;8.75;;;;;4.02;88.83;99991.84;4932786;28;104427;-71
2022/11/12 02:54:16;;;;;;;;;16.25;12.00;;;;;4.00;88.74;99999.16;4936424;28;104632;-71
2022/11/12 02:56:43;;;;;;;;;17.00;13.00;;;;;3.95;88.54;100000.50;4931432;28;102604;-71
2022/11/12 02:59:10;;;;;;;;;13.25;12.50;;;;;3.95;88.83;100003.19;4940504;28;102363;-71
2022/11/12 03:01:37;;;;;;;;;10.50;10.00;;;;;2.74;88.44;99800.06;4926719;28;104434;-71
2022/11/12 03:04:04;;;;;;;;;8.50;8.00;;;;;3.72;88.20;99961.38;4940945;28;102263;-71
2022/11/12 03:06:31;;;;;;;;;10.25;8.75;;;;;3.89;88.07;99995.63;4925596;28;105859;-71
2022/11/12 03:08:58;;;;;;;;;7.00;7.00;;;;;3.91;87.56;100001.72;4912735;28;102404;-71
2022/11/12 03:11:26;;;;;;;;;10.00;8.00;;;;;3.80;87.29;99985.69;4900846;28;104128;-71
2022/11/12 03:13:53;;;;;;;;;7.00;6.50;;;;;3.86;86.97;100003.91;4915457;28;102273;-71
2022/11/12 03:16:20;;;;;;;;;5.75;4.25;;;;;3.83;87.32;100001.47;4925164;28;102292;-71
2022/11/12 03:18:46;;;;;;;;;7.00;7.00;;;;;3.75;87.47;100006.59;4929205;28;102462;-71
2022/11/12 03:21:14;;;;;;;;;9.00;8.50;;;;;3.65;86.30;99997.63;4921970;28;103997;-71
2022/11/12 03:23:40;;;;;;;;;31.75;24.25;;;;;3.28;87.14;100000.56;4937198;28;102170;-71
2022/11/12 03:26:07;;;;;;;;;35.25;30.50;;;;;3.15;88.09;100010.50;4934168;28;102186;-71
2022/11/12 03:28:34;;;;;;;;;31.50;29.25;;;;;3.02;89.47;100005.25;4934840;28;102314;-70
2022/11/12 03:31:01;;;;;;;;;28.00;18.00;;;;;3.07;89.03;100005.75;4925571;28;108959;-70
2022/11/12 03:33:28;;;;;;;;;20.50;17.00;;;;;3.08;89.87;100003.94;4920778;28;102388;-70
2022/11/12 03:35:55;;;;;;;;;15.75;15.25;;;;;3.07;89.73;100004.88;4927717;28;102423;-71
2022/11/12 03:38:22;;;;;;;;;12.50;12.00;;;;;3.10;89.96;100002.00;4930270;28;102432;-71
2022/11/12 03:40:50;;;;;;;;;11.00;10.75;;;;;3.11;89.80;99999.19;4937207;28;104322;-71
2022/11/12 03:43:17;;;;;;;;;11.00;7.25;;;;;3.15;89.55;99991.81;4935996;28;102450;-70
2022/11/12 03:45:44;;;;;;;;;11.00;7.00;;;;;3.22;89.77;99993.00;4928052;28;101899;-71
2022/11/12 03:48:11;;;;;;;;;6.00;5.25;;;;;3.25;89.51;99998.09;4934828;28;102093;-71
2022/11/12 03:50:38;;;;;;;;;2.00;1.75;;;;;3.28;90.10;99994.34;4925342;28;103086;-71
2022/11/12 03:53:06;;;;;;;;;5.00;5.00;;;;;3.26;89.25;99993.63;4931443;28;102443;-71
2022/11/12 03:55:33;;;;;;;;;12.50;8.25;;;;;3.22;87.69;99993.00;4940882;28;102282;-71
2022/11/12 03:58:00;;;;;;;;;8.25;7.00;;;;;3.21;88.07;99991.31;4926338;28;102110;-71
2022/11/12 04:00:28;;;;;;;;;7.50;6.75;;;;;3.20;87.63;99991.44;4926816;28;104025;-71
2022/11/12 04:02:56;;;;;;;;;6.50;6.50;;;;;3.18;87.05;99986.22;4928769;28;102452;-71
2022/11/12 04:08:35;;;;;;;;;1.25;1.25;;;;;3.17;87.87;99984.50;4932294;28;102145;-70
2022/11/12 04:11:14;;;;;;;;;2.00;1.50;;;;;3.18;88.47;99978.19;4923251;28;108621;-71
2022/11/12 04:13:46;;;;;;;;;8.50;6.00;;;;;3.17;89.45;99989.00;4929491;28;102359;-71
2022/11/12 04:21:54;;;;;;;;;20.50;16.75;;;;;3.10;89.70;99991.31;4935209;28;108918;-71
2022/11/12 04:27:11;;;;;;;;;20.00;12.00;;;;;2.97;89.94;99993.25;4927775;28;102364;-72
2022/11/12 04:32:24;;;;;;;;;8.75;8.25;;;;;2.99;89.98;99989.47;4927774;28;104474;-71
2022/11/12 04:34:52;;;;;;;;;6.50;6.50;;;;;2.98;88.73;99990.44;4930612;28;102470;-71
2022/11/12 04:37:20;;;;;;;;;5.00;3.50;;;;;2.94;89.03;99990.78;4934297;28;102009;-71
2022/11/12 04:39:50;;;;;;;;;12.75;8.00;;;;;2.84;87.93;99979.09;4931674;28;103025;-71
2022/11/12 04:45:09;;;;;;;;;14.00;9.25;;;;;2.64;88.18;99969.97;4931832;28;101934;-72
2022/11/12 04:47:39;;;;;;;;;16.75;14.50;;;;;2.61;88.25;99973.72;4938419;28;102257;-71
2022/11/12 04:50:15;;;;;;;;;13.00;9.25;;;;;2.64;88.78;99983.31;4936935;28;101925;-72
2022/11/12 04:52:43;;;;;;;;;4.50;2.00;;;;;2.63;89.04;99992.28;4921339;28;108698;-72
2022/11/12 04:55:10;;;;;;;;;12.50;11.00;;;;;2.52;87.35;99981.59;4931924;28;102239;-72
2022/11/12 04:57:37;;;;;;;;;12.25;10.75;;;;;2.52;88.18;99981.59;4937022;28;102259;-72
2022/11/12 05:00:05;;;;;;;;;10.00;7.25;;;;;1.92;88.11;99875.84;4929810;28;102310;-71
2022/11/12 05:02:32;;;;;;;;;6.50;5.75;;;;;2.53;88.58;99976.13;4942758;28;103733;-72
2022/11/12 05:04:59;;;;;;;;;7.50;7.50;;;;;2.57;89.20;99982.91;4939523;28;102265;-72
2022/11/12 05:07:26;;;;;;;;;8.00;7.50;;;;;2.61;89.43;99987.06;4940458;28;102727;-72
2022/11/12 05:09:53;;;;;;;;;3.50;2.25;;;;;2.58;88.35;99979.28;4919570;28;102396;-72
2022/11/12 05:12:20;;;;;;;;;9.75;8.00;;;;;2.53;88.62;99978.78;4937399;28;103955;-72
2022/11/12 05:14:47;;;;;;;;;19.75;18.75;;;;;2.38;88.18;99971.97;4935278;28;102334;-72
2022/11/12 05:17:14;;;;;;;;;19.00;17.75;;;;;2.38;89.54;99989.78;4946034;28;102150;-71
2022/11/12 05:19:41;;;;;;;;;20.75;16.50;;;;;2.36;88.53;99984.56;4938302;28;102447;-72
2022/11/12 05:22:11;;;;;;;;;13.00;11.25;;;;;2.15;89.44;99940.81;4938441;28;103943;-72
2022/11/12 05:24:58;;;;;;;;;19.25;15.00;;;;;2.34;88.98;99991.84;4932423;28;104361;-71
2022/11/12 05:27:25;;;;;;;;;21.25;18.50;;;;;2.29;89.30;99994.00;4941897;28;102904;-71
2022/11/12 05:29:52;;;;;;;;;18.75;16.50;;;;;1.99;87.94;99948.25;4933845;28;102288;-71
2022/11/12 05:32:19;;;;;;;;;20.25;17.00;;;;;2.14;88.31;99981.78;4927589;28;104026;-71
2022/11/12 05:34:46;;;;;;;;;18.00;13.00;;;;;2.14;88.62;99985.31;4934285;28;102242;-71
2022/11/12 05:37:13;;;;;;;;;8.75;8.50;;;;;2.15;89.39;99981.69;4929990;28;104373;-71
2022/11/12 05:39:40;;;;;;;;;13.50;11.50;;;;;2.11;88.64;99987.38;4932934;28;102416;-71
2022/11/12 05:42:08;;;;;;;;;41.33;30.67;;;;;1.55;88.34;99923.06;4949146;28;104082;-71
2022/11/12 05:44:40;;;;;;;;;39.75;31.50;;;;;1.79;89.27;99995.91;4932257;28;102869;-72
2022/11/12 05:47:07;;;;;;;;;34.33;29.33;;;;;1.66;89.21;99997.78;4938209;28;102759;-71
2022/11/12 05:49:34;;;;;;;;;28.00;23.00;;;;;1.68;89.01;99997.63;4928352;28;101935;-71
2022/11/12 05:52:01;;;;;;;;;20.50;17.00;;;;;1.71;89.70;99997.44;4933273;28;104188;-72
2022/11/12 05:54:28;;;;;;;;;16.25;14.00;;;;;1.72;88.21;100009.78;4931238;28;105073;-71
2022/11/12 05:56:55;;;;;;;;;29.00;26.67;;;;;1.58;87.64;99997.44;4926585;28;102178;-71
2022/11/12 05:59:21;;;;;;;;;21.50;17.50;;;;;1.55;88.38;100008.34;4926166;28;102517;-72
2022/11/12 06:01:49;;;;;;;;;14.00;14.00;;;;;1.51;88.53;100009.53;4924499;28;103975;-71
2022/11/12 06:04:17;;;;;;;;;17.00;14.00;;;;;1.46;88.70;100011.66;4925790;28;102145;-71
2022/11/12 06:06:44;;;;;;;;;10.00;8.50;;;;;1.43;88.47;100003.03;4933082;28;102412;-72
2022/11/12 06:09:11;;;;;;;;;7.00;6.25;;;;;1.51;87.91;100012.19;4930507;28;103237;-71
2022/11/12 06:11:38;;;;;;;;;7.25;6.50;;;;;1.53;87.61;100020.91;4935975;28;104006;-71
2022/11/12 06:14:05;;;;;;;;;17.50;14.75;;;;;1.51;88.83;100022.84;4941230;28;101984;-71
2022/11/12 06:16:33;;;;;;;;;13.25;13.00;;;;;1.54;89.23;100022.63;4931960;28;102095;-72
2022/11/12 06:18:59;;;;;;;;;13.50;11.50;;;;;1.60;89.43;100022.19;4934803;28;102702;-72
2022/11/12 06:21:26;;;;;;;;;12.25;10.25;;;;;1.65;89.51;100028.06;4928248;28;104279;-71
2022/11/12 06:23:57;;;;;;;;;11.50;9.00;;;;;1.72;88.85;100026.63;4939996;28;102000;-71
2022/11/12 06:26:27;;;;;;;;;10.50;10.50;;;;;1.80;88.28;100026.94;4933186;28;102486;-71
2022/11/12 06:28:54;;;;;;;;;5.75;4.50;;;;;1.45;87.55;99972.63;4943621;28;102274;-71
2022/11/12 06:31:22;;;;;;;;;6.00;3.00;;;;;1.85;87.37;100026.59;4939531;28;104102;-71
2022/11/12 06:33:49;;;;;;;;;6.75;6.00;;;;;1.87;86.88;100024.69;4938188;28;103865;-71
2022/11/12 06:36:19;;;;;;;;;11.75;9.25;;;;;1.78;86.90;100010.22;4931532;28;102181;-71
2022/11/12 06:38:46;;;;;;;;;10.25;9.00;;;;;1.95;87.14;100038.31;4942526;28;102132;-71
2022/11/12 06:41:13;;;;;;;;;5.25;5.25;;;;;2.00;87.51;100035.31;4939860;28;103965;-71
2022/11/12 06:43:41;;;;;;;;;3.50;2.50;;;;;2.04;86.40;100029.63;4929471;28;103309;-71
2022/11/12 06:46:12;;;;;;;;;5.25;5.00;;;;;2.05;86.42;100042.00;4930739;28;102627;-71
2022/11/12 06:48:40;;;;;;;;;17.25;13.00;;;;;1.85;86.28;100012.44;4931527;28;102456;-72
2022/11/12 06:51:18;;;;;;;;;9.50;6.00;;;;;2.07;86.21;100033.91;4927004;28;104439;-70
2022/11/12 06:53:46;;;;;;;;;17.50;13.75;;;;;1.78;86.37;100004.03;4935447;28;102274;-72
2022/11/12 06:56:14;;;;;;;;;22.25;17.50;;;;;1.99;86.93;100034.44;4924938;28;102959;-72
2022/11/12 06:58:41;;;;;;;;;18.00;14.75;;;;;2.09;87.29;100045.31;4940650;28;101979;-71
2022/11/12 07:01:14;;;;;;;;;18.00;14.25;;;;;2.18;87.15;100057.97;4929602;28;104174;-71
2022/11/12 07:03:42;;;;;;;;;10.75;6.75;;;;;2.30;86.86;100059.72;4927919;28;102568;-71
2022/11/12 07:06:17;;;;;;;;;13.25;11.50;;;;;2.36;87.02;100053.94;4939708;28;102544;-71
2022/11/12 07:08:49;;;;;;;;;23.67;20.00;;;;;2.36;87.22;100048.63;4932684;28;102831;-72
2022/11/12 07:11:20;;;;;;;;;31.67;23.67;;;;;2.41;88.13;100046.47;4931267;28;104947;-72
2022/11/12 07:13:47;;;;;;;;;20.25;15.25;;;;;2.61;87.68;100056.47;4927494;28;102249;-72
2022/11/12 07:16:17;;;;;;;;;14.00;14.00;;;;;2.70;88.26;100058.47;4925506;28;103949;-72
2022/11/12 07:18:45;;;;;;;;;8.50;7.00;;;;;2.87;88.50;100053.69;4935304;28;102146;-72
2022/11/12 07:21:17;;;;;;;;;10.75;9.75;;;;;3.04;87.77;100042.53;4930706;28;103989;-71
2022/11/12 07:23:46;;;;;;;;;12.00;11.50;;;;;3.18;88.65;100046.81;4931670;28;102629;-71
2022/11/12 07:26:16;;;;;;;;;30.25;22.00;;;;;3.31;89.37;100045.75;4931297;28;102342;-73
2022/11/12 07:28:44;;;;;;;;;15.75;14.75;;;;;3.46;88.87;100041.88;4930669;28;103023;-73
2022/11/12 07:31:14;;;;;;;;;19.25;15.00;;;;;3.58;89.39;100040.06;4935686;28;104017;-73
2022/11/12 07:33:42;;;;;;;;;24.00;22.50;;;;;3.75;88.73;100042.22;4933437;28;102361;-72
2022/11/12 07:36:11;;;;;;;;;19.25;18.75;;;;;3.90;88.99;100032.97;4932824;28;102470;-75
2022/11/12 07:38:41;;;;;;;;;13.50;10.25;;;;;3.96;89.36;100028.97;4936361;28;102515;-73
2022/11/12 07:41:14;;;;;;;;;11.75;10.75;;;;;4.27;90.47;100038.88;4937589;28;108626;-72
2022/11/12 07:43:43;;;;;;;;;12.00;10.50;;;;;4.46;90.78;100039.03;4931704;28;102513;-73
2022/11/12 07:46:19;;;;;;;;;15.75;11.00;;;;;4.65;91.05;100042.84;4920987;28;102195;-72
2022/11/12 07:48:46;;;;;;;;;8.00;7.25;;;;;4.73;90.53;100035.03;4940044;28;102205;-73
2022/11/12 07:51:19;;;;;;;;;11.25;8.00;;;;;4.99;90.76;100047.09;4934990;28;103958;-72
2022/11/12 07:53:48;;;;;;;;;12.75;10.75;;;;;5.16;90.33;100054.53;4926640;28;102503;-72
2022/11/12 07:56:19;;;;;;;;;10.75;10.25;;;;;5.25;89.65;100043.03;4932025;28;102409;-72
2022/11/12 07:58:47;;;;;;;;;22.75;20.00;;;;;5.43;89.04;100045.09;4930995;28;102391;-73
2022/11/12 08:01:29;;;;;;;;;12.75;9.50;;;;;5.55;88.28;100049.38;4923376;28;104067;-73
2022/11/12 08:03:58;;;;;;;;;9.50;8.75;;;;;5.66;87.88;100044.78;4912304;28;102008;-72
2022/11/12 08:06:26;;;;;;;;;8.50;6.50;;;;;5.65;87.31;100026.13;4923852;28;102087;-73
2022/11/12 08:08:57;;;;;;;;;7.50;6.50;;;;;5.91;87.68;100051.56;4926298;28;102554;-73
2022/11/12 08:11:24;;;;;;;;;10.25;6.50;;;;;6.04;87.18;100052.16;4934563;28;103993;-71
2022/11/12 08:13:54;;;;;;;;;9.50;8.00;;;;;6.14;86.19;100057.56;4931977;28;102195;-73
2022/11/12 08:16:22;;;;;;;;;12.00;9.00;;;;;6.27;86.08;100048.25;4928479;28;102188;-72
2022/11/12 08:18:49;;;;;;;;;12.00;12.00;;;;;6.39;85.77;100056.22;4931931;28;101981;-72
2022/11/12 08:21:17;;;;;;;;;16.00;13.50;;;;;6.52;85.34;100051.41;4930179;28;104076;-71
2022/11/12 08:23:45;;;;;;;;;14.25;14.25;;;;;6.64;84.65;100056.53;4923417;28;101998;-72
2022/11/12 08:26:14;;;;;;;;;14.25;11.50;;;;;6.70;84.17;100049.75;4930397;28;102288;-72
2022/11/12 08:28:42;;;;;;;;;12.75;12.00;;;;;6.86;83.89;100055.38;4932021;28;102497;-72
2022/11/12 08:31:15;;;;;;;;;14.50;13.25;;;;;6.90;82.60;100051.41;4929938;28;108694;-72
2022/11/12 08:33:43;;;;;;;;;17.00;14.00;;;;;7.00;82.85;100063.03;4925038;28;105640;-72
2022/11/12 08:36:12;;;;;;;;;16.50;15.00;;;;;7.11;82.29;100065.53;4926485;28;102579;-72
2022/11/12 08:38:39;;;;;;;;;19.75;15.25;;;;;7.22;82.00;100069.94;4928755;28;102033;-72
2022/11/12 08:41:09;;;;;;;;;20.75;19.75;;;;;7.26;82.42;100059.72;4931835;28;103656;-72
2022/11/12 08:43:37;;;;;;;;;31.50;25.25;;;;;7.26;80.80;100059.72;4936546;28;102369;-72
2022/11/12 08:46:04;;;;;;;;;33.00;26.50;;;;;7.35;81.06;100057.03;4902974;28;102076;-71
2022/11/12 08:48:33;;;;;;;;;27.25;21.00;;;;;7.49;81.46;100055.72;4930246;28;102158;-71
2022/11/12 08:51:01;;;;;;;;;23.25;17.50;;;;;7.61;80.65;100065.31;4933263;28;103959;-72
2022/11/12 08:53:28;;;;;;;;;15.25;14.00;;;;;7.61;79.43;100041.06;4926657;28;101853;-71
2022/11/12 08:55:56;;;;;;;;;15.25;14.50;;;;;7.88;80.26;100061.84;4928583;28;102208;-71
2022/11/12 08:58:24;;;;;;;;;20.75;18.50;;;;;8.00;78.69;100053.41;4911555;28;102040;-71
2022/11/12 09:00:53;;;;;;;;;15.25;14.50;;;;;8.14;78.38;100064.69;4928272;28;104336;-72
2022/11/12 09:03:23;;;;;;;;;23.50;16.25;;;;;8.27;76.99;100059.78;4922916;28;103748;-72
2022/11/12 09:05:53;;;;;;;;;22.50;17.50;;;;;8.37;77.22;100058.78;4936908;28;102057;-71
2022/11/12 09:08:23;;;;;;;;;21.75;20.75;;;;;8.51;75.61;100060.94;4920161;28;101951;-71
2022/11/12 09:10:51;;;;;;;;;19.25;16.50;;;;;8.47;76.66;100040.66;4923234;28;104184;-71
2022/11/12 09:13:18;;;;;;;;;20.00;16.25;;;;;8.74;75.76;100058.63;4924120;28;102180;-72
2022/11/12 09:15:46;;;;;;;;;15.25;11.75;;;;;8.88;74.19;100063.50;4928140;28;101973;-72
2022/11/12 09:18:16;;;;;;;;;19.75;18.50;;;;;8.98;71.79;100057.16;4932528;28;103617;-72
2022/11/12 09:20:43;;;;;;;;;48.75;37.25;;;;;8.95;73.12;100059.19;4938990;28;103960;-71
2022/11/12 09:23:13;;;;;;;;;35.75;32.25;;;;;9.17;72.90;100054.31;4932200;28;102338;-71
2022/11/12 09:25:42;;;;;;;;;41.00;34.75;;;;;9.24;72.84;100071.56;4933070;28;102363;-71
2022/11/12 09:28:17;;;;;;;;;35.75;30.75;;;;;9.36;70.89;100051.41;4938421;28;102409;-71
2022/11/12 09:30:49;;;;;;;;;42.75;36.75;;;;;9.43;71.47;100047.06;4930338;28;108697;-72
2022/11/12 09:33:19;;;;;;;;;27.50;26.50;;;;;9.61;70.72;100052.41;4934899;28;102600;-71
2022/11/12 09:35:46;;;;;;;;;24.00;19.50;;;;;9.77;69.62;100050.66;4903114;28;103417;-71
2022/11/12 09:38:16;;;;;;;;;20.75;18.75;;;;;9.89;69.94;100044.97;4929580;28;103806;-72
2022/11/12 09:41:06;;;;;;;;;19.50;18.00;;;;;10.05;69.01;100047.75;4925726;28;104177;-71
2022/11/12 09:43:38;;;;;;;;;21.50;17.75;;;;;10.10;67.37;100032.75;4917786;28;102256;-71
2022/11/12 09:46:23;;;;;;;;;28.25;22.25;;;;;10.29;67.33;100053.28;4920321;28;101982;-71
2022/11/12 09:49:26;;;;;;;;;17.25;16.50;;;;;10.47;66.72;100051.31;4932836;28;102636;-72
2022/11/12 09:52:04;;;;;;;;;27.25;22.75;;;;;10.59;68.69;100050.00;4927204;28;108691;-72
2022/11/12 09:54:33;;;;;;;;;27.75;23.50;;;;;10.69;68.05;100050.69;4936075;28;102003;-72
2022/11/12 09:57:01;;;;;;;;;25.50;20.25;;;;;10.84;66.69;100050.03;4930762;28;102346;-71
2022/11/12 09:59:31;;;;;;;;;26.75;24.50;;;;;10.93;66.13;100047.19;4938853;28;102147;-71
2022/11/12 10:02:18;;;;;;;;;24.25;21.00;;;;;11.05;66.34;100050.38;4932247;28;104016;-72
2022/11/12 10:04:45;;;;;;;;;39.75;34.50;;;;;10.97;65.69;100044.97;4935690;28;102422;-72
2022/11/12 10:07:38;;;;;;;;;35.25;27.75;;;;;11.13;65.27;100053.09;4931885;28;102521;-72
2022/11/12 10:10:09;;;;;;;;;25.00;24.50;;;;;11.06;66.19;100020.47;4934260;28;101978;-72
2022/11/12 10:13:13;;;;;;;;;33.25;26.50;;;;;11.42;65.58;100049.88;4931938;28;104207;-72
2022/11/12 10:18:58;;;;;;;;;26.00;23.25;;;;;11.57;63.94;100038.16;4921368;28;102500;-72
2022/11/12 10:22:05;;;;;;;;;33.25;27.50;;;;;11.67;63.01;100037.97;4908800;28;103014;-72
2022/11/12 10:24:39;;;;;;;;;20.25;18.75;;;;;11.84;63.00;100030.69;4909683;28;108690;-72
2022/11/12 10:27:18;;;;;;;;;21.25;18.25;;;;;11.84;62.40;100036.13;4934443;28;102759;-72
2022/11/12 10:29:59;;;;;;;;;21.00;17.25;;;;;11.86;62.49;100028.63;4925160;28;102065;-73
2022/11/12 10:32:26;;;;;;;;;16.25;12.00;;;;;11.98;61.78;100032.66;4939107;28;102394;-72
2022/11/12 10:34:53;;;;;;;;;6.00;6.00;;;;;12.11;61.78;100027.53;4928965;28;103998;-72
2022/11/12 10:37:34;;;;;;;;;11.00;9.50;;;;;12.10;61.47;100014.16;4928642;28;102153;-72
2022/11/12 10:40:19;;;;;;;;;17.25;14.00;;;;;12.05;62.01;100028.22;4923157;28;102346;-71
2022/11/12 10:42:59;;;;;;;;;10.00;5.00;;;;;12.23;61.43;100022.56;4929147;28;102065;-72
2022/11/12 10:45:27;;;;;;;;;10.50;8.25;;;;;12.37;60.97;100017.25;4933354;28;104107;-71
2022/11/12 10:47:54;;;;;;;;;9.75;8.50;;;;;12.40;60.72;100022.28;4925551;28;102117;-71
2022/11/12 10:50:28;;;;;;;;;10.00;8.00;;;;;12.46;61.08;100027.03;4925967;28;102286;-72
2022/11/12 10:52:58;;;;;;;;;17.75;16.25;;;;;12.25;61.74;100021.34;4928770;28;102444;-72
2022/11/12 10:55:36;;;;;;;;;12.75;10.00;;;;;12.46;61.15;100024.31;4928248;28;103943;-73
2022/11/12 10:58:10;;;;;;;;;14.25;13.00;;;;;12.43;59.54;100021.94;4932567;28;102481;-72
2022/11/12 11:01:01;;;;;;;;;11.75;10.25;;;;;12.63;60.40;100027.75;4933257;28;102271;-73
2022/11/12 11:03:35;;;;;;;;;16.75;16.00;;;;;12.49;59.64;100036.66;4906067;28;102345;-72
2022/11/12 11:06:14;;;;;;;;;13.75;12.50;;;;;12.47;59.54;100028.69;4933877;28;103958;-72
2022/11/12 11:08:43;;;;;;;;;15.00;13.75;;;;;12.56;60.15;100025.94;4930796;28;102219;-72
2022/11/12 11:11:26;;;;;;;;;9.25;8.00;;;;;12.65;60.39;100027.59;4928732;28;102312;-73
2022/11/12 11:13:56;;;;;;;;;10.75;10.00;;;;;12.68;59.87;100029.94;4929645;28;102268;-73
2022/11/12 11:16:28;;;;;;;;;11.50;9.50;;;;;12.76;60.01;100019.88;4936159;28;104025;-73
2022/11/12 11:18:58;;;;;;;;;17.00;16.50;;;;;12.68;59.18;100019.94;4932465;28;102427;-73
2022/11/12 11:21:43;;;;;;;;;14.50;13.00;;;;;12.79;58.57;100016.78;4925988;28;102104;-73
2022/11/12 11:24:29;;;;;;;;;12.25;10.50;;;;;12.74;59.09;100016.47;4935201;28;101953;-73
2022/11/12 11:27:02;;;;;;;;;18.00;15.25;;;;;12.83;59.21;100014.56;4934604;28;108643;-73
2022/11/12 11:29:44;;;;;;;;;21.00;18.50;;;;;12.83;60.09;100006.44;4932660;28;102062;-73
2022/11/12 11:32:32;;;;;;;;;20.50;18.50;;;;;12.77;59.25;100012.56;4923525;28;102311;-73
2022/11/12 11:35:19;;;;;;;;;23.25;21.75;;;;;12.67;58.48;100022.81;4917116;28;102029;-72
2022/11/12 11:38:01;;;;;;;;;20.25;18.00;;;;;12.44;58.13;100015.50;4917481;28;108700;-73
2022/11/12 11:40:39;;;;;;;;;20.50;18.25;;;;;12.64;57.68;100007.75;4927877;28;102423;-73
2022/11/12 11:43:34;;;;;;;;;22.25;18.50;;;;;12.69;58.68;100015.34;4928670;28;102785;-73
2022/11/12 11:46:26;;;;;;;;;19.25;18.00;;;;;12.77;58.58;100013.41;4921212;28;101966;-72
2022/11/12 11:49:01;;;;;;;;;14.25;13.50;;;;;12.79;58.59;100007.78;4906113;28;108577;-73
2022/11/12 11:51:58;;;;;;;;;28.25;24.50;;;;;12.80;58.81;100009.47;4927885;28;102533;-72
2022/11/12 11:54:44;;;;;;;;;25.00;22.00;;;;;12.62;57.28;99987.22;4928218;28;102102;-73
2022/11/12 11:57:20;;;;;;;;;26.00;23.50;;;;;12.66;58.10;100010.25;4935770;28;102124;-73